Medfield, Massachusetts
Current Conditions -  °F | °C
As of 1:53 AM on Friday 28 Nov 2014 (Local Time) from KOWD Reporting Station
Light Snow Light Snow  
Wind Chill: 23°   Ceiling: 1400
Heat Index: 30°   Visibility: 4mi
Dew Point: 27°   Wind: 7mph
Humidity: 88%   Direction: 330°NNW
Pressure: 29.99"   Gusts: NA
Location:  42.19°N, 71.3°W
Report Text: KOWD 280653Z AUTO 33006KT 4SM -SN BR BKN014 OVC019 M01/M03 A2999 RMK AO2 SNB06 SLP157 P0000 T10111028
Loading
Personal Weather Stations






























Interactive Weather Map New forecast layout! Learn more

10-Day Weather Forecast

Advertisements
Track Severe Weather on mobile